AUR6RC EGJB-EGJJ

Flight info

Callsign AUR6RC
Flight time 0h 12m
Altitude 3500
Route JSY
Aircraft SH36/M-SDFGRY/S

Departure

Time 2026-04-26 20:33
Airport Guernsey Airport (EGJB)

Arrival

Time 2026-04-26 20:45
Airport Jersey Airport (EGJJ)
Time Latitude Longitude Altitude Speed Heading
2026-04-26 20:14 49.43292 -2.59850 319 ft 0 kts 89°
2026-04-26 20:21 49.43267 -2.59854 319 ft 12 kts 281°
2026-04-26 20:21 49.43311 -2.59909 318 ft 0 kts 275°
2026-04-26 20:21 49.43340 -2.59973 317 ft 15 kts 279°
2026-04-26 20:21 49.43336 -2.60181 314 ft 25 kts 268°
2026-04-26 20:22 49.43326 -2.60497 310 ft 24 kts 268°
2026-04-26 20:22 49.43371 -2.60650 308 ft 5 kts 350°
2026-04-26 20:22 49.43377 -2.60651 308 ft 0 kts 355°
2026-04-26 20:27 49.43292 -2.59850 308 ft 0 kts 89°
2026-04-26 20:30 49.43291 -2.59841 319 ft 2 kts 117°
2026-04-26 20:31 49.43279 -2.59873 316 ft 3 kts 339°
2026-04-26 20:31 49.43288 -2.59878 318 ft 7 kts 336°
2026-04-26 20:31 49.43340 -2.59989 317 ft 18 kts 266°
2026-04-26 20:31 49.43333 -2.60278 313 ft 34 kts 267°
2026-04-26 20:32 49.43335 -2.60607 308 ft 19 kts 315°
2026-04-26 20:32 49.43465 -2.60647 310 ft 13 kts 39°
2026-04-26 20:32 49.43492 -2.60410 310 ft 46 kts 87°
2026-04-26 20:32 49.43514 -2.59602 322 ft 100 kts 87°
2026-04-26 20:33 49.43548 -2.58417 545 ft 117 kts 89°
2026-04-26 20:33 49.43552 -2.57128 887 ft 122 kts 88°
2026-04-26 20:33 49.43562 -2.55807 1259 ft 125 kts 88°
2026-04-26 20:33 49.43582 -2.54444 1571 ft 131 kts 91°
2026-04-26 20:34 49.43161 -2.53204 1822 ft 145 kts 148°
2026-04-26 20:34 49.42150 -2.53282 2180 ft 149 kts 195°
2026-04-26 20:34 49.41108 -2.53800 2231 ft 169 kts 193°
2026-04-26 20:34 49.39913 -2.54271 2165 ft 184 kts 192°
2026-04-26 20:35 49.38648 -2.54702 2093 ft 193 kts 188°
2026-04-26 20:35 49.37312 -2.55116 2018 ft 192 kts 188°
2026-04-26 20:35 49.36030 -2.55540 2000 ft 188 kts 189°
2026-04-26 20:35 49.34754 -2.55959 1999 ft 186 kts 188°
2026-04-26 20:36 49.33496 -2.56397 2000 ft 184 kts 189°
2026-04-26 20:36 49.32250 -2.56824 2003 ft 183 kts 189°
2026-04-26 20:36 49.31000 -2.57235 2000 ft 183 kts 189°
2026-04-26 20:36 49.29760 -2.57661 1996 ft 183 kts 189°
2026-04-26 20:37 49.28515 -2.58085 2005 ft 182 kts 189°
2026-04-26 20:37 49.27279 -2.58502 2003 ft 182 kts 189°
2026-04-26 20:37 49.26052 -2.58901 2005 ft 182 kts 189°
2026-04-26 20:37 49.24810 -2.59296 2007 ft 182 kts 188°
2026-04-26 20:38 49.23563 -2.59395 2002 ft 177 kts 167°
2026-04-26 20:38 49.22358 -2.59038 2011 ft 175 kts 164°
2026-04-26 20:38 49.21162 -2.58671 2008 ft 176 kts 166°
2026-04-26 20:38 49.19970 -2.58237 1991 ft 177 kts 154°
2026-04-26 20:39 49.19179 -2.56897 1995 ft 173 kts 105°
2026-04-26 20:39 49.19174 -2.55701 2011 ft 171 kts 77°
2026-04-26 20:39 49.19669 -2.53389 2020 ft 171 kts 72°
2026-04-26 20:39 49.19961 -2.51608 2005 ft 174 kts 78°
2026-04-26 20:40 49.20066 -2.49804 2033 ft 170 kts 88°
2026-04-26 20:40 49.20054 -2.48005 2009 ft 168 kts 94°
2026-04-26 20:40 49.19878 -2.46243 2006 ft 167 kts 99°
2026-04-26 20:40 49.19785 -2.44495 2002 ft 164 kts 85°
2026-04-26 20:41 49.19832 -2.42765 1997 ft 160 kts 92°
2026-04-26 20:41 49.19721 -2.41099 1991 ft 156 kts 101°
2026-04-26 20:41 49.19386 -2.39521 2005 ft 156 kts 109°
2026-04-26 20:41 49.19132 -2.37914 1999 ft 156 kts 92°
2026-04-26 20:42 49.19330 -2.36313 2017 ft 156 kts 75°
2026-04-26 20:42 49.19648 -2.34691 2057 ft 156 kts 77°
2026-04-26 20:42 49.19794 -2.33095 2139 ft 151 kts 86°
2026-04-26 20:42 49.19828 -2.31523 1877 ft 146 kts 88°
2026-04-26 20:43 49.19920 -2.30019 1619 ft 139 kts 82°
2026-04-26 20:43 49.20040 -2.28564 1278 ft 134 kts 83°
2026-04-26 20:43 49.20138 -2.27215 1110 ft 121 kts 84°
2026-04-26 20:43 49.20239 -2.26044 960 ft 106 kts 82°
2026-04-26 20:44 49.20342 -2.24920 867 ft 106 kts 80°
2026-04-26 20:44 49.20431 -2.23822 763 ft 103 kts 81°
2026-04-26 20:44 49.20526 -2.22743 611 ft 101 kts 81°
2026-04-26 20:44 49.20614 -2.21722 448 ft 97 kts 82°
2026-04-26 20:45 49.20702 -2.20699 309 ft 97 kts 84°
2026-04-26 20:45 49.20786 -2.19720 278 ft 87 kts 83°
2026-04-26 20:45 49.20851 -2.18926 276 ft 52 kts 83°
2026-04-26 20:45 49.20884 -2.18523 275 ft 30 kts 83°
2026-04-26 20:46 49.20821 -2.18379 277 ft 16 kts 184°
2026-04-26 20:46 49.20734 -2.18514 277 ft 19 kts 261°
2026-04-26 20:46 49.20710 -2.18791 277 ft 29 kts 263°
2026-04-26 20:46 49.20680 -2.19163 276 ft 33 kts 268°
2026-04-26 20:47 49.20707 -2.19460 276 ft 24 kts 259°
2026-04-26 20:47 49.20679 -2.19623 276 ft 23 kts 233°
2026-04-26 20:47 49.20606 -2.19863 275 ft 23 kts 263°
2026-04-26 20:47 49.20511 -2.19925 275 ft 20 kts 175°
2026-04-26 20:48 49.20435 -2.19825 275 ft 17 kts 85°
2026-04-26 20:48 49.20487 -2.19789 275 ft 4 kts 342°
2026-04-26 20:48 49.20489 -2.19790 275 ft 0 kts 343°